createdAt,value
2018-06-18T00:00:03.724Z,16.17
2018-06-18T00:01:03.725Z,16.12
2018-06-18T00:02:03.727Z,16.13
2018-06-18T00:03:03.728Z,16.16
2018-06-18T00:04:03.731Z,16.10
2018-06-18T00:05:03.731Z,16.21
2018-06-18T00:06:03.733Z,16.17
2018-06-18T00:07:03.734Z,16.20
2018-06-18T00:08:03.737Z,16.23
2018-06-18T00:09:03.738Z,16.16
2018-06-18T00:10:03.740Z,16.13
2018-06-18T00:11:03.743Z,16.16
2018-06-18T00:12:03.743Z,16.15
2018-06-18T00:13:03.744Z,16.13
2018-06-18T00:14:03.745Z,16.13
2018-06-18T00:15:03.748Z,16.16
2018-06-18T00:16:03.750Z,16.13
2018-06-18T00:17:03.751Z,16.15
2018-06-18T00:18:03.752Z,16.12
2018-06-18T00:19:03.754Z,16.13
2018-06-18T00:20:03.756Z,16.13
2018-06-18T00:21:03.758Z,16.16
2018-06-18T00:22:03.759Z,16.10
2018-06-18T00:23:03.761Z,16.15
2018-06-18T00:24:03.763Z,16.13
2018-06-18T00:25:03.765Z,16.12
2018-06-18T00:26:03.766Z,16.12
2018-06-18T00:27:03.768Z,16.15
2018-06-18T00:28:03.769Z,16.13
2018-06-18T00:29:03.771Z,16.13
2018-06-18T00:30:03.773Z,16.09
2018-06-18T00:31:03.774Z,16.13
2018-06-18T00:32:03.775Z,16.00
2018-06-18T00:33:03.778Z,16.12
2018-06-18T00:34:03.781Z,16.05
2018-06-18T00:35:03.781Z,16.10
2018-06-18T00:36:03.782Z,16.15
2018-06-18T00:37:03.785Z,16.08
2018-06-18T00:38:03.785Z,16.10
2018-06-18T00:39:03.788Z,16.10
2018-06-18T00:40:03.790Z,16.04
2018-06-18T00:41:03.792Z,16.04
2018-06-18T00:42:03.793Z,16.12
2018-06-18T00:43:03.796Z,16.12
2018-06-18T00:44:03.798Z,16.12
2018-06-18T00:45:03.800Z,16.10
2018-06-18T00:46:03.799Z,16.02
2018-06-18T00:47:03.802Z,16.09
2018-06-18T00:48:03.803Z,16.12
2018-06-18T00:49:03.805Z,16.09
2018-06-18T00:50:03.807Z,16.10
2018-06-18T00:51:03.808Z,16.04
2018-06-18T00:52:03.809Z,16.04
2018-06-18T00:53:03.822Z,16.05
2018-06-18T00:54:03.813Z,16.04
2018-06-18T00:55:03.815Z,16.00
2018-06-18T00:56:03.817Z,15.97
2018-06-18T00:57:03.818Z,15.91
2018-06-18T00:58:03.819Z,15.90
2018-06-18T00:59:03.821Z,15.91
2018-06-18T01:00:03.823Z,15.90
2018-06-18T01:01:03.826Z,15.97
2018-06-18T01:02:03.826Z,15.92
2018-06-18T01:03:03.828Z,15.91
2018-06-18T01:04:03.829Z,15.88
2018-06-18T01:05:03.831Z,15.83
2018-06-18T01:06:03.832Z,15.86
2018-06-18T01:07:03.833Z,15.92
2018-06-18T01:08:03.836Z,15.82
2018-06-18T01:09:03.838Z,15.88
2018-06-18T01:10:03.838Z,15.97
2018-06-18T01:11:03.840Z,15.94
2018-06-18T01:12:03.842Z,15.92
2018-06-18T01:13:03.842Z,15.92
2018-06-18T01:14:03.844Z,15.90
2018-06-18T01:15:03.845Z,15.92
2018-06-18T01:16:03.847Z,15.92
2018-06-18T01:17:03.849Z,15.91
2018-06-18T01:18:03.851Z,15.91
2018-06-18T01:19:03.851Z,15.98
2018-06-18T01:20:03.855Z,15.94
2018-06-18T01:21:03.854Z,15.95
2018-06-18T01:22:03.856Z,15.95
2018-06-18T01:23:03.858Z,15.97
2018-06-18T01:24:03.859Z,15.88
2018-06-18T01:25:03.860Z,15.90
2018-06-18T01:26:03.863Z,15.88
2018-06-18T01:27:03.863Z,15.86
2018-06-18T01:28:03.865Z,15.84
2018-06-18T01:29:03.867Z,15.88
2018-06-18T01:30:03.871Z,15.79
2018-06-18T01:31:03.870Z,15.84
2018-06-18T01:32:03.871Z,15.79
2018-06-18T01:33:03.872Z,15.72
2018-06-18T01:34:03.873Z,15.72
2018-06-18T01:35:03.875Z,15.79
2018-06-18T01:36:03.878Z,15.77
2018-06-18T01:37:03.880Z,15.75
2018-06-18T01:38:03.879Z,15.72
2018-06-18T01:39:03.885Z,15.73
2018-06-18T01:40:03.883Z,15.70
2018-06-18T01:41:03.890Z,15.77
2018-06-18T01:42:03.886Z,15.72
2018-06-18T01:43:03.886Z,15.68
2018-06-18T01:44:03.890Z,15.72
2018-06-18T01:45:03.894Z,15.82
2018-06-18T01:46:03.895Z,15.84
2018-06-18T01:47:03.894Z,15.79
2018-06-18T01:48:03.895Z,15.67
2018-06-18T01:49:03.898Z,15.68
2018-06-18T01:50:03.898Z,15.68
2018-06-18T01:51:03.900Z,15.65
2018-06-18T01:52:03.901Z,15.70
2018-06-18T01:53:03.905Z,15.73
2018-06-18T01:54:03.904Z,15.65
2018-06-18T01:55:03.907Z,15.68
2018-06-18T01:56:03.908Z,15.70
2018-06-18T01:57:03.912Z,15.61
2018-06-18T01:58:03.911Z,15.70
2018-06-18T01:59:03.913Z,15.65
2018-06-18T02:00:03.914Z,15.72
2018-06-18T02:01:03.916Z,15.79
2018-06-18T02:02:03.917Z,15.72
2018-06-18T02:03:03.919Z,15.76
2018-06-18T02:04:03.920Z,15.73
2018-06-18T02:05:03.924Z,15.80
2018-06-18T02:06:03.922Z,15.65
2018-06-18T02:07:03.924Z,15.75
2018-06-18T02:08:03.927Z,15.77
2018-06-18T02:09:03.928Z,15.73
2018-06-18T02:10:03.928Z,15.75
2018-06-18T02:11:03.930Z,15.76
2018-06-18T02:12:03.932Z,15.72
2018-06-18T02:13:03.934Z,15.68
2018-06-18T02:14:03.934Z,15.70
2018-06-18T02:15:03.935Z,15.68
2018-06-18T02:16:03.939Z,15.72
2018-06-18T02:17:03.939Z,15.72
2018-06-18T02:18:03.941Z,15.75
2018-06-18T02:19:03.942Z,15.73
2018-06-18T02:20:03.945Z,15.73
2018-06-18T02:21:03.945Z,15.75
2018-06-18T02:22:03.946Z,15.73
2018-06-18T02:23:03.947Z,15.88
2018-06-18T02:24:03.949Z,15.75
2018-06-18T02:25:03.950Z,15.83
2018-06-18T02:26:03.952Z,15.75
2018-06-18T02:27:03.953Z,15.84
2018-06-18T02:28:03.955Z,15.82
2018-06-18T02:29:03.957Z,15.82
2018-06-18T02:30:03.958Z,15.70
2018-06-18T02:31:03.961Z,15.84
2018-06-18T02:32:03.959Z,15.90
2018-06-18T02:33:03.963Z,15.83
2018-06-18T02:34:03.969Z,15.83
2018-06-18T02:35:03.965Z,15.92
2018-06-18T02:36:03.968Z,15.92
2018-06-18T02:37:03.969Z,15.95
2018-06-18T02:38:03.968Z,15.88
2018-06-18T02:39:03.971Z,15.92
2018-06-18T02:40:03.973Z,15.92
2018-06-18T02:41:03.975Z,15.86
2018-06-18T02:42:03.975Z,15.94
2018-06-18T02:43:03.978Z,15.92
2018-06-18T02:44:03.978Z,15.86
2018-06-18T02:45:03.981Z,15.88
2018-06-18T02:46:03.981Z,15.83
2018-06-18T02:47:03.983Z,15.84
2018-06-18T02:48:03.985Z,15.84
2018-06-18T02:49:03.995Z,15.82
2018-06-18T02:50:03.986Z,15.83
2018-06-18T02:51:03.990Z,15.88
2018-06-18T02:52:03.991Z,15.90
2018-06-18T02:53:03.994Z,15.88
2018-06-18T02:54:03.994Z,15.90
2018-06-18T02:55:04.000Z,15.86
2018-06-18T02:56:03.998Z,15.92
2018-06-18T02:57:04.001Z,15.94
2018-06-18T02:58:03.999Z,15.88
2018-06-18T02:59:04.001Z,15.90
2018-06-18T03:00:04.004Z,15.90
2018-06-18T03:01:04.006Z,15.90
2018-06-18T03:02:04.007Z,15.94
2018-06-18T03:03:04.009Z,15.91
2018-06-18T03:04:04.010Z,15.92
2018-06-18T03:05:04.021Z,16.01
2018-06-18T03:06:04.013Z,15.94
2018-06-18T03:07:04.014Z,15.92
2018-06-18T03:08:04.017Z,15.95
2018-06-18T03:09:04.018Z,15.94
2018-06-18T03:10:04.020Z,15.97
2018-06-18T03:11:04.020Z,15.94
2018-06-18T03:12:04.028Z,15.98
2018-06-18T03:13:04.024Z,16.05
2018-06-18T03:14:04.025Z,16.01
2018-06-18T03:15:04.031Z,16.09
2018-06-18T03:16:04.030Z,16.12
2018-06-18T03:17:04.031Z,16.02
2018-06-18T03:18:04.031Z,16.15
2018-06-18T03:19:04.033Z,16.04
2018-06-18T03:20:04.035Z,16.05
2018-06-18T03:21:04.035Z,16.04
2018-06-18T03:22:04.036Z,16.09
2018-06-18T03:23:04.039Z,16.02
2018-06-18T03:24:04.040Z,16.01
2018-06-18T03:25:04.042Z,16.01
2018-06-18T03:26:04.043Z,16.00
2018-06-18T03:27:04.044Z,15.94
2018-06-18T03:28:04.046Z,15.95
2018-06-18T03:29:04.047Z,15.94
2018-06-18T03:30:04.049Z,15.90
2018-06-18T03:31:04.052Z,15.91
2018-06-18T03:32:04.051Z,15.94
2018-06-18T03:33:04.055Z,15.94
2018-06-18T03:34:04.055Z,15.92
2018-06-18T03:35:04.055Z,15.90
2018-06-18T03:36:04.058Z,15.97
2018-06-18T03:37:04.066Z,15.97
2018-06-18T03:38:04.059Z,15.91
2018-06-18T03:39:04.062Z,15.97
2018-06-18T03:40:04.063Z,15.90
2018-06-18T03:41:04.065Z,15.91
2018-06-18T03:42:04.066Z,15.91
2018-06-18T03:43:04.068Z,15.88
2018-06-18T03:44:04.069Z,15.95
2018-06-18T03:45:04.071Z,16.01
2018-06-18T03:46:04.074Z,16.08
2018-06-18T03:47:04.074Z,16.00
2018-06-18T03:48:04.076Z,15.94
2018-06-18T03:49:04.077Z,16.02
2018-06-18T03:50:04.077Z,16.05
2018-06-18T03:51:04.080Z,15.98
2018-06-18T03:52:04.080Z,16.04
2018-06-18T03:53:04.083Z,16.05
2018-06-18T03:54:04.084Z,16.05
2018-06-18T03:55:04.088Z,16.08
2018-06-18T03:56:04.087Z,15.98
2018-06-18T03:57:04.090Z,16.01
2018-06-18T03:58:04.090Z,16.10
2018-06-18T03:59:04.092Z,16.10
2018-06-18T04:00:04.093Z,16.00
2018-06-18T04:01:04.095Z,16.02
2018-06-18T04:02:04.097Z,16.15
2018-06-18T04:03:04.097Z,16.10
2018-06-18T04:04:04.100Z,16.12
2018-06-18T04:05:04.101Z,16.08
2018-06-18T04:06:04.103Z,16.15
2018-06-18T04:07:04.104Z,16.09
2018-06-18T04:08:04.107Z,16.15
2018-06-18T04:09:04.110Z,16.12
2018-06-18T04:10:04.109Z,16.12
2018-06-18T04:11:04.142Z,16.12
2018-06-18T04:12:04.113Z,16.09
2018-06-18T04:13:04.113Z,16.20
2018-06-18T04:14:04.115Z,16.13
2018-06-18T04:15:04.117Z,16.15
2018-06-18T04:16:04.119Z,16.15
2018-06-18T04:17:04.121Z,16.13
2018-06-18T04:18:04.122Z,16.13
2018-06-18T04:19:04.123Z,16.24
2018-06-18T04:20:04.126Z,16.16
2018-06-18T04:21:04.127Z,16.13
2018-06-18T04:22:04.136Z,16.17
2018-06-18T04:23:04.130Z,16.13
2018-06-18T04:24:04.135Z,16.20
2018-06-18T04:25:04.133Z,16.17
2018-06-18T04:26:04.135Z,16.21
2018-06-18T04:27:04.140Z,16.23
2018-06-18T04:28:04.137Z,16.26
2018-06-18T04:29:04.139Z,16.32
2018-06-18T04:30:04.142Z,16.26
2018-06-18T04:31:04.148Z,16.32
2018-06-18T04:32:04.145Z,16.29
2018-06-18T04:33:04.145Z,16.32
2018-06-18T04:34:04.148Z,16.32
2018-06-18T04:35:04.148Z,16.35
2018-06-18T04:36:04.151Z,16.26
2018-06-18T04:37:04.152Z,16.29
2018-06-18T04:38:04.153Z,16.35
2018-06-18T04:39:04.155Z,16.28
2018-06-18T04:40:04.156Z,16.28
2018-06-18T04:41:04.158Z,16.29
2018-06-18T04:42:04.161Z,16.32
2018-06-18T04:43:04.160Z,16.23
2018-06-18T04:44:04.161Z,16.26
2018-06-18T04:45:04.164Z,16.38
2018-06-18T04:46:04.164Z,16.42
2018-06-18T04:47:04.166Z,16.43
2018-06-18T04:48:04.168Z,16.39
2018-06-18T04:49:04.172Z,16.43
2018-06-18T04:50:04.169Z,16.49
2018-06-18T04:51:04.174Z,16.43
2018-06-18T04:52:04.173Z,16.50
2018-06-18T04:53:04.177Z,16.53
2018-06-18T04:54:04.177Z,16.56
2018-06-18T04:55:04.179Z,16.58
2018-06-18T04:56:04.180Z,16.53
2018-06-18T04:57:04.182Z,16.57
2018-06-18T04:58:04.182Z,16.65
2018-06-18T04:59:04.184Z,16.57
2018-06-18T05:00:04.185Z,16.68
2018-06-18T05:01:04.187Z,16.74
2018-06-18T05:02:04.188Z,16.71
2018-06-18T05:03:04.189Z,16.76
2018-06-18T05:04:04.191Z,16.71
2018-06-18T05:05:04.195Z,16.76
2018-06-18T05:06:04.205Z,16.74
2018-06-18T05:07:04.195Z,16.74
2018-06-18T05:08:04.197Z,16.71
2018-06-18T05:09:04.199Z,16.64
2018-06-18T05:10:04.202Z,16.71
2018-06-18T05:11:04.201Z,16.64
2018-06-18T05:12:04.203Z,16.66
2018-06-18T05:13:04.206Z,16.66
2018-06-18T05:14:04.209Z,16.68
2018-06-18T05:15:04.208Z,16.76
2018-06-18T05:16:04.211Z,16.71
2018-06-18T05:17:04.211Z,16.71
2018-06-18T05:18:04.212Z,16.71
2018-06-18T05:19:04.214Z,16.68
2018-06-18T05:20:04.216Z,16.64
2018-06-18T05:21:04.216Z,16.64
2018-06-18T05:22:04.221Z,16.61
2018-06-18T05:23:04.224Z,16.68
2018-06-18T05:24:04.222Z,16.68
2018-06-18T05:25:04.224Z,16.68
2018-06-18T05:26:04.227Z,16.65
2018-06-18T05:27:04.226Z,16.68
2018-06-18T05:28:04.227Z,16.65
2018-06-18T05:29:04.230Z,16.69
2018-06-18T05:30:04.230Z,16.61
2018-06-18T05:31:04.233Z,16.60
2018-06-18T05:32:04.236Z,16.60
2018-06-18T05:33:04.236Z,16.60
2018-06-18T05:34:04.237Z,16.56
2018-06-18T05:35:04.240Z,16.54
2018-06-18T05:36:04.239Z,16.26
2018-06-18T05:37:04.244Z,16.13
2018-06-18T05:38:04.242Z,16.12
2018-06-18T05:39:04.245Z,15.90
2018-06-18T05:40:04.245Z,15.79
2018-06-18T05:41:04.248Z,15.83
2018-06-18T05:42:04.248Z,15.72
2018-06-18T05:43:04.250Z,15.72
2018-06-18T05:44:04.251Z,15.72
2018-06-18T05:45:04.252Z,15.65
2018-06-18T05:46:04.253Z,15.72
2018-06-18T05:47:04.254Z,15.70
2018-06-18T05:48:04.256Z,15.65
2018-06-18T05:49:04.257Z,15.62
2018-06-18T05:50:04.257Z,15.65
2018-06-18T05:51:04.259Z,15.59
2018-06-18T05:52:04.260Z,15.73
2018-06-18T05:53:04.261Z,15.76
2018-06-18T05:54:04.263Z,15.75
2018-06-18T05:55:04.265Z,15.90
2018-06-18T05:56:04.265Z,15.90
2018-06-18T05:57:04.265Z,15.91
2018-06-18T05:58:04.265Z,16.08
2018-06-18T05:59:04.267Z,15.94
2018-06-18T06:00:04.268Z,16.04
2018-06-18T06:01:04.270Z,16.15
2018-06-18T06:02:04.268Z,16.10
2018-06-18T06:03:04.271Z,16.10
2018-06-18T06:04:04.272Z,16.29
2018-06-18T06:05:04.274Z,16.28
2018-06-18T06:06:04.317Z,16.29
2018-06-18T06:07:04.277Z,16.42
2018-06-18T06:08:04.278Z,16.49
2018-06-18T06:09:04.280Z,16.65
2018-06-18T06:10:04.280Z,16.66
2018-06-18T06:11:04.281Z,16.72
2018-06-18T06:12:04.283Z,16.72
2018-06-18T06:13:04.285Z,16.72
2018-06-18T06:14:04.286Z,16.72
2018-06-18T06:15:04.305Z,16.68
2018-06-18T06:16:04.289Z,16.72
2018-06-18T06:17:04.292Z,16.86
2018-06-18T06:18:04.293Z,16.86
2018-06-18T06:19:04.294Z,16.90
2018-06-18T06:20:04.296Z,16.91
2018-06-18T06:21:04.297Z,17.01
2018-06-18T06:22:04.299Z,17.11
2018-06-18T06:23:04.301Z,17.20
2018-06-18T06:24:04.303Z,17.14
2018-06-18T06:25:04.306Z,17.23
2018-06-18T06:26:04.306Z,17.19
2018-06-18T06:27:04.308Z,17.24
2018-06-18T06:28:04.310Z,17.22
2018-06-18T06:29:04.313Z,17.22
2018-06-18T06:30:04.315Z,17.16
2018-06-18T06:31:04.319Z,17.24
2018-06-18T06:32:04.319Z,17.30
2018-06-18T06:33:04.323Z,17.36
2018-06-18T06:34:04.343Z,17.39
2018-06-18T06:35:04.326Z,17.30
2018-06-18T06:36:04.327Z,17.33
2018-06-18T06:37:04.331Z,17.20
2018-06-18T06:38:04.333Z,17.29
2018-06-18T06:39:04.335Z,17.34
2018-06-18T06:40:04.337Z,17.33
2018-06-18T06:41:04.339Z,17.39
2018-06-18T06:42:04.341Z,17.46
2018-06-18T06:43:04.343Z,17.57
2018-06-18T06:44:04.346Z,17.60
2018-06-18T06:45:04.349Z,17.64
2018-06-18T06:46:04.350Z,17.78
2018-06-18T06:47:04.353Z,17.78
2018-06-18T06:48:04.355Z,17.80
2018-06-18T06:49:04.358Z,17.85
2018-06-18T06:50:04.360Z,17.87
2018-06-18T06:51:04.363Z,17.86
2018-06-18T06:52:04.366Z,17.83
2018-06-18T06:53:04.368Z,17.90
2018-06-18T06:54:04.372Z,17.95
2018-06-18T06:55:04.374Z,17.95
2018-06-18T06:56:04.377Z,18.13
2018-06-18T06:57:04.380Z,18.15
2018-06-18T06:58:04.381Z,18.18
2018-06-18T06:59:04.384Z,18.35
2018-06-18T07:00:04.387Z,18.38
2018-06-18T07:01:04.391Z,18.33
2018-06-18T07:02:04.393Z,18.37
2018-06-18T07:03:04.396Z,18.40
2018-06-18T07:04:04.398Z,18.62
2018-06-18T07:05:04.402Z,18.59
2018-06-18T07:06:04.405Z,18.55
2018-06-18T07:07:04.408Z,18.66
2018-06-18T07:08:04.439Z,18.71
2018-06-18T07:09:04.417Z,18.73
2018-06-18T07:10:04.417Z,18.59
2018-06-18T07:11:04.420Z,18.62
2018-06-18T07:12:04.424Z,18.56
2018-06-18T07:13:04.429Z,18.60
2018-06-18T07:14:04.430Z,18.73
2018-06-18T07:15:04.440Z,18.68
2018-06-18T07:16:04.438Z,18.59
2018-06-18T07:17:04.441Z,18.50
2018-06-18T07:18:04.444Z,18.43
2018-06-18T07:19:04.450Z,18.45
2018-06-18T07:20:04.452Z,18.52
2018-06-18T07:21:04.455Z,18.47
2018-06-18T07:22:04.458Z,18.59
2018-06-18T07:23:04.464Z,18.66
2018-06-18T07:24:04.464Z,18.74
2018-06-18T07:25:04.470Z,18.83
2018-06-18T07:26:04.523Z,18.75
2018-06-18T07:27:04.476Z,18.84
2018-06-18T07:28:04.481Z,18.77
2018-06-18T07:29:04.482Z,18.75
2018-06-18T07:30:04.486Z,18.75
2018-06-18T07:31:04.492Z,18.78
2018-06-18T07:32:04.494Z,18.95
2018-06-18T07:33:04.501Z,18.86
2018-06-18T07:34:04.501Z,18.83
2018-06-18T07:35:04.505Z,18.84
2018-06-18T07:36:04.509Z,18.86
2018-06-18T07:37:04.512Z,18.80
2018-06-18T07:38:04.515Z,18.86
2018-06-18T07:39:04.519Z,18.99
2018-06-18T07:40:04.524Z,18.92
2018-06-18T07:41:04.528Z,18.93
2018-06-18T07:42:04.530Z,18.89
2018-06-18T07:43:04.536Z,19.04
2018-06-18T07:44:04.538Z,19.02
2018-06-18T07:45:04.542Z,19.02
2018-06-18T07:46:04.546Z,18.96
2018-06-18T07:47:04.550Z,19.14
2018-06-18T07:48:04.553Z,19.08
2018-06-18T07:49:04.561Z,19.00
2018-06-18T07:50:04.560Z,19.02
2018-06-18T07:51:04.565Z,19.02
2018-06-18T07:52:04.568Z,19.22
2018-06-18T07:53:04.573Z,19.27
2018-06-18T07:54:04.576Z,19.31
2018-06-18T07:55:04.580Z,19.27
2018-06-18T07:56:04.585Z,19.27
2018-06-18T07:57:04.588Z,19.41
2018-06-18T07:58:04.593Z,19.29
2018-06-18T07:59:04.595Z,19.31
2018-06-18T08:00:04.598Z,19.54
2018-06-18T08:01:04.603Z,19.56
2018-06-18T08:02:04.608Z,19.39
2018-06-18T08:03:04.611Z,19.31
2018-06-18T08:04:04.671Z,19.40
2018-06-18T08:05:04.621Z,19.58
2018-06-18T08:06:04.624Z,19.71
2018-06-18T08:07:04.629Z,19.82
2018-06-18T08:08:04.631Z,20.09
2018-06-18T08:09:04.635Z,20.16
2018-06-18T08:10:04.640Z,20.34
2018-06-18T08:11:04.642Z,20.13
2018-06-18T08:12:04.649Z,20.43
2018-06-18T08:13:04.654Z,20.74
2018-06-18T08:14:04.656Z,20.82
2018-06-18T08:15:04.662Z,20.82
2018-06-18T08:16:04.666Z,20.82
2018-06-18T08:17:04.671Z,20.99
2018-06-18T08:18:04.676Z,20.88
2018-06-18T08:19:04.681Z,20.87
2018-06-18T08:20:04.685Z,20.70
2018-06-18T08:21:04.691Z,20.67
2018-06-18T08:22:04.695Z,20.60
2018-06-18T08:23:04.701Z,20.56
2018-06-18T08:24:04.706Z,20.81
2018-06-18T08:25:04.711Z,20.95
2018-06-18T08:26:04.717Z,20.96
2018-06-18T08:27:04.721Z,20.93
2018-06-18T08:28:04.727Z,20.88
2018-06-18T08:29:04.733Z,21.07
2018-06-18T08:30:04.738Z,21.14
2018-06-18T08:31:04.747Z,21.03
2018-06-18T08:32:04.750Z,20.95
2018-06-18T08:33:04.759Z,20.87
2018-06-18T08:34:04.761Z,20.66
2018-06-18T08:35:04.767Z,20.58
2018-06-18T08:36:04.773Z,21.00
2018-06-18T08:37:04.779Z,21.39
2018-06-18T08:38:04.784Z,20.99
2018-06-18T08:39:04.791Z,20.95
2018-06-18T08:40:04.797Z,20.88
2018-06-18T08:41:04.806Z,21.24
2018-06-18T08:42:04.808Z,21.99
2018-06-18T08:43:04.815Z,22.14
2018-06-18T08:44:04.821Z,21.62
2018-06-18T08:45:04.827Z,21.69
2018-06-18T08:46:04.833Z,22.02
2018-06-18T08:47:04.840Z,21.85
2018-06-18T08:48:04.848Z,21.70
2018-06-18T08:49:04.854Z,21.64
2018-06-18T08:50:04.862Z,21.37
2018-06-18T08:51:04.866Z,21.27
2018-06-18T08:52:04.874Z,21.17
2018-06-18T08:53:04.881Z,21.12
2018-06-18T08:54:04.887Z,21.03
2018-06-18T08:55:04.898Z,20.84
2018-06-18T08:56:04.901Z,20.77
2018-06-18T08:57:04.908Z,20.70
2018-06-18T08:58:04.914Z,20.59
2018-06-18T08:59:04.921Z,20.67
2018-06-18T09:00:04.927Z,20.60
2018-06-18T09:01:04.933Z,20.50
2018-06-18T09:02:04.940Z,20.44
2018-06-18T09:03:04.950Z,20.66
2018-06-18T09:04:04.953Z,20.80
2018-06-18T09:05:04.961Z,20.84
2018-06-18T09:06:04.966Z,21.00
2018-06-18T09:07:04.971Z,21.14
2018-06-18T09:08:04.976Z,21.54
2018-06-18T09:09:04.985Z,21.70
2018-06-18T09:10:04.989Z,21.75
2018-06-18T09:11:04.997Z,21.62
2018-06-18T09:12:05.005Z,21.96
2018-06-18T09:13:05.014Z,22.17
2018-06-18T09:14:05.013Z,22.30
2018-06-18T09:15:05.020Z,22.38
2018-06-18T09:16:05.049Z,22.22
2018-06-18T09:17:05.035Z,22.22
2018-06-18T09:18:05.040Z,21.75
2018-06-18T09:19:05.047Z,21.62
2018-06-18T09:20:05.052Z,21.27
2018-06-18T09:21:05.059Z,20.97
2018-06-18T09:22:05.065Z,20.95
2018-06-18T09:23:05.073Z,21.03
2018-06-18T09:24:05.079Z,21.15
2018-06-18T09:25:05.084Z,21.02
2018-06-18T09:26:05.091Z,20.93
2018-06-18T09:27:05.096Z,20.99
2018-06-18T09:28:05.104Z,21.24
2018-06-18T09:29:05.110Z,22.35
2018-06-18T09:30:05.118Z,23.28
2018-06-18T09:31:05.122Z,23.92
2018-06-18T09:32:05.220Z,24.55
2018-06-18T09:33:05.137Z,24.32
2018-06-18T09:34:05.144Z,24.08
2018-06-18T09:35:05.150Z,23.91
2018-06-18T09:36:05.158Z,24.29
2018-06-18T09:37:05.167Z,23.24
2018-06-18T09:38:05.176Z,22.72
2018-06-18T09:39:05.182Z,22.38
2018-06-18T09:40:05.189Z,22.22
2018-06-18T09:41:05.198Z,21.99
2018-06-18T09:42:05.206Z,21.85
2018-06-18T09:43:05.214Z,21.64
2018-06-18T09:44:05.224Z,21.52
2018-06-18T09:45:05.232Z,21.17
2018-06-18T09:46:05.239Z,21.06
2018-06-18T09:47:05.248Z,21.07
2018-06-18T09:48:05.301Z,20.97
2018-06-18T09:49:05.264Z,20.92
2018-06-18T09:50:05.271Z,20.85
2018-06-18T09:51:05.279Z,20.93
2018-06-18T09:52:05.286Z,20.95
2018-06-18T09:53:05.294Z,21.05
2018-06-18T09:54:05.301Z,20.88
2018-06-18T09:55:05.307Z,20.72
2018-06-18T09:56:05.315Z,20.87
2018-06-18T09:57:05.325Z,20.78
2018-06-18T09:58:05.329Z,20.70
2018-06-18T09:59:05.335Z,20.67
2018-06-18T10:00:05.341Z,20.66
2018-06-18T10:01:05.349Z,20.81
2018-06-18T10:02:05.356Z,20.75
2018-06-18T10:03:05.361Z,20.75
2018-06-18T10:04:05.368Z,20.65
2018-06-18T10:05:05.377Z,20.69
2018-06-18T10:06:05.380Z,20.85
2018-06-18T10:07:05.385Z,20.93
2018-06-18T10:08:05.393Z,20.99
2018-06-18T10:09:05.399Z,21.14
2018-06-18T10:10:05.404Z,21.30
2018-06-18T10:11:05.410Z,21.48
2018-06-18T10:12:05.416Z,21.66
2018-06-18T10:13:05.421Z,21.88
2018-06-18T10:14:05.427Z,21.79
2018-06-18T10:15:05.433Z,21.83
2018-06-18T10:16:05.438Z,21.69
2018-06-18T10:17:05.446Z,21.58
2018-06-18T10:18:05.451Z,21.46
2018-06-18T10:19:05.458Z,21.35
2018-06-18T10:20:05.464Z,21.36
2018-06-18T10:21:05.476Z,21.32
2018-06-18T10:22:05.476Z,21.20
2018-06-18T10:23:05.482Z,21.35
2018-06-18T10:24:05.530Z,21.42
2018-06-18T10:25:05.494Z,21.29
2018-06-18T10:26:05.501Z,21.17
2018-06-18T10:27:05.506Z,21.12
2018-06-18T10:28:05.512Z,21.29
2018-06-18T10:29:05.519Z,21.40
2018-06-18T10:30:05.528Z,21.36
2018-06-18T10:31:05.569Z,21.45
2018-06-18T10:32:05.538Z,21.51
2018-06-18T10:33:05.543Z,21.37
2018-06-18T10:34:05.547Z,21.24
2018-06-18T10:35:05.553Z,21.29
2018-06-18T10:36:05.559Z,21.50
2018-06-18T10:37:05.565Z,21.48
2018-06-18T10:38:05.571Z,21.57
2018-06-18T10:39:05.577Z,21.73
2018-06-18T10:40:05.583Z,21.98
2018-06-18T10:41:05.589Z,22.11
2018-06-18T10:42:05.594Z,22.20
2018-06-18T10:43:05.600Z,21.98
2018-06-18T10:44:05.610Z,21.85
2018-06-18T10:45:05.616Z,21.72
2018-06-18T10:46:05.618Z,21.51
2018-06-18T10:47:05.623Z,21.25
2018-06-18T10:48:05.631Z,21.32
2018-06-18T10:49:05.722Z,21.40
2018-06-18T10:50:05.643Z,21.36
2018-06-18T10:51:05.648Z,21.39
2018-06-18T10:52:05.654Z,21.54
2018-06-18T10:53:05.661Z,21.42
2018-06-18T10:54:05.666Z,21.45
2018-06-18T10:55:05.672Z,21.58
2018-06-18T10:56:05.677Z,21.50
2018-06-18T10:57:05.727Z,21.51
2018-06-18T10:58:05.690Z,21.36
2018-06-18T10:59:05.695Z,21.32
2018-06-18T11:00:05.701Z,21.32
2018-06-18T11:01:05.709Z,21.29
2018-06-18T11:02:05.714Z,21.46
2018-06-18T11:03:05.718Z,21.62
2018-06-18T11:04:05.730Z,21.73
2018-06-18T11:05:05.731Z,21.70
2018-06-18T11:06:05.736Z,21.50
2018-06-18T11:07:05.741Z,21.69
2018-06-18T11:08:05.748Z,21.91
2018-06-18T11:09:05.765Z,21.96
2018-06-18T11:10:05.759Z,22.02
2018-06-18T11:11:05.764Z,22.13
2018-06-18T11:12:05.772Z,22.14
2018-06-18T11:13:05.778Z,22.14
2018-06-18T11:14:05.783Z,22.25
2018-06-18T11:15:05.793Z,22.25
2018-06-18T11:16:05.860Z,22.18
2018-06-18T11:17:05.997Z,22.06
2018-06-18T11:18:05.806Z,21.89
2018-06-18T11:19:05.812Z,21.76
2018-06-18T11:20:05.819Z,21.75
2018-06-18T11:21:05.828Z,21.70
2018-06-18T11:22:05.831Z,21.52
2018-06-18T11:23:05.838Z,21.55
2018-06-18T11:24:05.844Z,21.52
2018-06-18T11:25:05.853Z,21.48
2018-06-18T11:26:05.856Z,21.48
2018-06-18T11:27:05.906Z,21.40
2018-06-18T11:28:05.869Z,21.33
2018-06-18T11:29:05.876Z,21.21
2018-06-18T11:30:05.903Z,21.21
2018-06-18T11:31:05.886Z,21.22
2018-06-18T11:32:05.892Z,21.18
2018-06-18T11:33:05.899Z,21.20
2018-06-18T11:34:05.951Z,21.22
2018-06-18T11:35:05.915Z,21.21
2018-06-18T11:36:05.915Z,21.36
2018-06-18T11:37:05.922Z,21.35
2018-06-18T11:38:05.927Z,21.43
2018-06-18T11:39:05.933Z,21.29
2018-06-18T11:40:05.939Z,21.42
2018-06-18T11:41:05.945Z,21.39
2018-06-18T11:42:06.027Z,21.37
2018-06-18T11:43:05.956Z,21.40
2018-06-18T11:44:05.961Z,21.58
2018-06-18T11:45:05.968Z,21.51
2018-06-18T11:46:05.972Z,21.54
2018-06-18T11:47:05.978Z,21.60
2018-06-18T11:48:06.025Z,21.61
2018-06-18T11:49:05.989Z,21.70
2018-06-18T11:50:05.994Z,21.72
2018-06-18T11:51:06.002Z,21.69
2018-06-18T11:52:06.006Z,21.66
2018-06-18T11:53:06.013Z,21.55
2018-06-18T11:54:06.018Z,21.50
2018-06-18T11:55:06.023Z,21.46
2018-06-18T11:56:06.029Z,21.51
2018-06-18T11:57:06.034Z,21.48
2018-06-18T11:58:06.040Z,21.36
2018-06-18T11:59:06.046Z,21.40
2018-06-18T12:00:06.052Z,21.40
2018-06-18T12:01:06.058Z,21.46
2018-06-18T12:02:06.066Z,21.39
2018-06-18T12:03:06.069Z,21.36
2018-06-18T12:04:06.076Z,21.48
2018-06-18T12:05:06.081Z,21.48
2018-06-18T12:06:06.088Z,20.97
2018-06-18T12:07:06.106Z,20.87
2018-06-18T12:08:06.098Z,20.88
2018-06-18T12:09:06.104Z,20.69
2018-06-18T12:10:06.108Z,20.93
2018-06-18T12:11:06.116Z,20.93
2018-06-18T12:12:06.121Z,20.85
2018-06-18T12:13:06.126Z,20.90
2018-06-18T12:14:06.132Z,20.93
2018-06-18T12:15:06.137Z,20.87
2018-06-18T12:16:06.142Z,20.87
2018-06-18T12:17:06.149Z,20.99
2018-06-18T12:18:06.154Z,20.85
2018-06-18T12:19:06.159Z,20.87
2018-06-18T12:20:06.166Z,20.81
2018-06-18T12:21:06.172Z,20.95
2018-06-18T12:22:06.177Z,21.12
2018-06-18T12:23:06.183Z,21.17
2018-06-18T12:24:06.191Z,21.39
2018-06-18T12:25:06.196Z,21.39
2018-06-18T12:26:06.200Z,21.48
2018-06-18T12:27:06.206Z,21.52
2018-06-18T12:28:06.272Z,21.64
2018-06-18T12:29:06.219Z,21.69
2018-06-18T12:30:06.225Z,21.73
2018-06-18T12:31:06.280Z,21.76
2018-06-18T12:32:06.238Z,21.95
2018-06-18T12:33:06.245Z,22.04
2018-06-18T12:34:06.249Z,22.25
2018-06-18T12:35:06.254Z,22.33
2018-06-18T12:36:06.262Z,22.43
2018-06-18T12:37:06.268Z,22.48
2018-06-18T12:38:06.274Z,22.50
2018-06-18T12:39:06.280Z,22.38
2018-06-18T12:40:06.286Z,22.29
2018-06-18T12:41:06.360Z,22.18
2018-06-18T12:42:06.299Z,22.14
2018-06-18T12:43:06.306Z,22.11
2018-06-18T12:44:06.314Z,22.20
2018-06-18T12:45:06.320Z,22.43
2018-06-18T12:46:06.326Z,22.50
2018-06-18T12:47:06.333Z,22.38
2018-06-18T12:48:06.342Z,22.35
2018-06-18T12:49:06.347Z,22.33
2018-06-18T12:50:06.353Z,22.10
2018-06-18T12:51:06.364Z,21.92
2018-06-18T12:52:06.367Z,21.66